sensor_id;sensor_type;location;lat;lon;timestamp;temperature;humidity
63017;DHT22;50274;45.640;11.756;2024-03-23T00:53:47;12.60;68.60
63017;DHT22;50274;45.640;11.756;2024-03-23T00:56:13;12.60;68.60
63017;DHT22;50274;45.640;11.756;2024-03-23T00:58:39;12.50;68.60
63017;DHT22;50274;45.640;11.756;2024-03-23T01:01:05;12.50;68.70
63017;DHT22;50274;45.640;11.756;2024-03-23T01:03:30;12.50;68.70
63017;DHT22;50274;45.640;11.756;2024-03-23T01:06:02;12.50;68.70
63017;DHT22;50274;45.640;11.756;2024-03-23T01:08:29;12.50;68.70
63017;DHT22;50274;45.640;11.756;2024-03-23T01:10:59;12.50;68.70
63017;DHT22;50274;45.640;11.756;2024-03-23T01:13:25;12.50;68.70
63017;DHT22;50274;45.640;11.756;2024-03-23T01:15:52;12.50;68.70
63017;DHT22;50274;45.640;11.756;2024-03-23T01:18:18;12.50;68.70
63017;DHT22;50274;45.640;11.756;2024-03-23T01:20:45;12.50;68.70
63017;DHT22;50274;45.640;11.756;2024-03-23T01:23:11;12.50;68.80
63017;DHT22;50274;45.640;11.756;2024-03-23T01:25:37;12.50;68.80
63017;DHT22;50274;45.640;11.756;2024-03-23T01:28:03;12.50;68.80
63017;DHT22;50274;45.640;11.756;2024-03-23T01:30:29;12.50;68.80
63017;DHT22;50274;45.640;11.756;2024-03-23T01:32:56;12.50;68.80
63017;DHT22;50274;45.640;11.756;2024-03-23T01:35:21;12.40;68.90
63017;DHT22;50274;45.640;11.756;2024-03-23T01:37:47;12.40;69.00
63017;DHT22;50274;45.640;11.756;2024-03-23T01:40:13;12.30;69.00
63017;DHT22;50274;45.640;11.756;2024-03-23T01:42:42;12.30;69.10
63017;DHT22;50274;45.640;11.756;2024-03-23T01:45:08;12.30;69.20
63017;DHT22;50274;45.640;11.756;2024-03-23T01:47:35;12.20;69.20
63017;DHT22;50274;45.640;11.756;2024-03-23T01:50:01;12.20;69.30
63017;DHT22;50274;45.640;11.756;2024-03-23T01:52:27;12.20;69.40
63017;DHT22;50274;45.640;11.756;2024-03-23T01:54:53;12.10;69.50
63017;DHT22;50274;45.640;11.756;2024-03-23T01:57:20;12.10;69.50
63017;DHT22;50274;45.640;11.756;2024-03-23T01:59:48;12.10;69.50
63017;DHT22;50274;45.640;11.756;2024-03-23T02:02:14;12.10;69.50
63017;DHT22;50274;45.640;11.756;2024-03-23T02:04:43;12.10;69.50
63017;DHT22;50274;45.640;11.756;2024-03-23T02:07:09;12.10;69.50
63017;DHT22;50274;45.640;11.756;2024-03-23T02:09:35;12.00;69.50
63017;DHT22;50274;45.640;11.756;2024-03-23T02:12:02;12.00;69.70
63017;DHT22;50274;45.640;11.756;2024-03-23T02:14:28;12.00;69.60
63017;DHT22;50274;45.640;11.756;2024-03-23T02:16:54;12.00;69.60
63017;DHT22;50274;45.640;11.756;2024-03-23T02:19:20;12.00;69.60
63017;DHT22;50274;45.640;11.756;2024-03-23T02:21:45;11.90;69.70
63017;DHT22;50274;45.640;11.756;2024-03-23T02:24:12;11.90;69.80
63017;DHT22;50274;45.640;11.756;2024-03-23T02:26:38;11.90;69.80
63017;DHT22;50274;45.640;11.756;2024-03-23T02:29:04;11.90;69.90
63017;DHT22;50274;45.640;11.756;2024-03-23T02:31:30;11.90;70.00
63017;DHT22;50274;45.640;11.756;2024-03-23T02:33:56;11.80;69.90
63017;DHT22;50274;45.640;11.756;2024-03-23T02:36:21;11.80;69.90
63017;DHT22;50274;45.640;11.756;2024-03-23T02:38:47;11.80;69.90
63017;DHT22;50274;45.640;11.756;2024-03-23T02:41:13;11.70;69.90
63017;DHT22;50274;45.640;11.756;2024-03-23T02:43:39;11.70;69.90
63017;DHT22;50274;45.640;11.756;2024-03-23T02:46:05;11.70;70.00
63017;DHT22;50274;45.640;11.756;2024-03-23T02:48:31;11.60;70.10
63017;DHT22;50274;45.640;11.756;2024-03-23T02:50:56;11.60;70.10
63017;DHT22;50274;45.640;11.756;2024-03-23T02:53:22;11.60;70.10
63017;DHT22;50274;45.640;11.756;2024-03-23T02:55:48;11.60;70.10
63017;DHT22;50274;45.640;11.756;2024-03-23T02:58:14;11.60;70.10
63017;DHT22;50274;45.640;11.756;2024-03-23T03:00:39;11.60;70.10
63017;DHT22;50274;45.640;11.756;2024-03-23T03:03:06;11.60;70.10
63017;DHT22;50274;45.640;11.756;2024-03-23T03:05:32;11.50;70.20
63017;DHT22;50274;45.640;11.756;2024-03-23T03:07:58;11.50;70.20
63017;DHT22;50274;45.640;11.756;2024-03-23T03:10:24;11.50;70.30
63017;DHT22;50274;45.640;11.756;2024-03-23T03:12:50;11.50;70.30
63017;DHT22;50274;45.640;11.756;2024-03-23T03:15:15;11.50;70.20
63017;DHT22;50274;45.640;11.756;2024-03-23T03:17:41;11.50;70.20
63017;DHT22;50274;45.640;11.756;2024-03-23T03:20:08;11.50;70.10
63017;DHT22;50274;45.640;11.756;2024-03-23T03:22:39;11.50;70.10
63017;DHT22;50274;45.640;11.756;2024-03-23T03:25:05;11.40;70.10
63017;DHT22;50274;45.640;11.756;2024-03-23T03:27:32;11.40;70.10
63017;DHT22;50274;45.640;11.756;2024-03-23T03:29:59;11.30;70.10
63017;DHT22;50274;45.640;11.756;2024-03-23T03:32:28;11.30;70.10
63017;DHT22;50274;45.640;11.756;2024-03-23T03:34:54;11.30;70.20
63017;DHT22;50274;45.640;11.756;2024-03-23T03:37:20;11.30;70.20
63017;DHT22;50274;45.640;11.756;2024-03-23T03:39:46;11.30;70.30
63017;DHT22;50274;45.640;11.756;2024-03-23T03:42:12;11.20;70.30
63017;DHT22;50274;45.640;11.756;2024-03-23T03:44:37;11.20;70.30
63017;DHT22;50274;45.640;11.756;2024-03-23T03:47:05;11.20;70.40
63017;DHT22;50274;45.640;11.756;2024-03-23T03:49:31;11.10;70.40
63017;DHT22;50274;45.640;11.756;2024-03-23T03:51:57;11.10;70.50
63017;DHT22;50274;45.640;11.756;2024-03-23T03:54:23;11.10;70.60
63017;DHT22;50274;45.640;11.756;2024-03-23T03:56:49;11.10;70.60
63017;DHT22;50274;45.640;11.756;2024-03-23T03:59:15;11.10;70.60
63017;DHT22;50274;45.640;11.756;2024-03-23T04:01:41;11.00;70.60
63017;DHT22;50274;45.640;11.756;2024-03-23T04:04:07;11.00;70.60
63017;DHT22;50274;45.640;11.756;2024-03-23T04:06:33;11.00;70.60
63017;DHT22;50274;45.640;11.756;2024-03-23T04:08:59;11.00;70.70
63017;DHT22;50274;45.640;11.756;2024-03-23T04:11:25;11.00;70.80
63017;DHT22;50274;45.640;11.756;2024-03-23T04:13:50;11.00;70.80
63017;DHT22;50274;45.640;11.756;2024-03-23T04:16:33;11.00;70.80
63017;DHT22;50274;45.640;11.756;2024-03-23T04:19:00;11.00;70.80
63017;DHT22;50274;45.640;11.756;2024-03-23T04:21:25;10.90;70.80
63017;DHT22;50274;45.640;11.756;2024-03-23T04:23:52;11.00;70.80
63017;DHT22;50274;45.640;11.756;2024-03-23T04:26:17;11.00;70.70
63017;DHT22;50274;45.640;11.756;2024-03-23T04:28:43;10.90;70.60
63017;DHT22;50274;45.640;11.756;2024-03-23T04:31:09;10.90;70.70
63017;DHT22;50274;45.640;11.756;2024-03-23T04:33:35;10.90;70.70
63017;DHT22;50274;45.640;11.756;2024-03-23T04:36:01;10.80;70.80
63017;DHT22;50274;45.640;11.756;2024-03-23T04:38:28;10.80;70.90
63017;DHT22;50274;45.640;11.756;2024-03-23T04:40:55;10.80;71.00
63017;DHT22;50274;45.640;11.756;2024-03-23T04:43:21;10.70;71.00
63017;DHT22;50274;45.640;11.756;2024-03-23T04:45:47;10.80;71.10
63017;DHT22;50274;45.640;11.756;2024-03-23T04:48:13;10.70;71.00
63017;DHT22;50274;45.640;11.756;2024-03-23T04:50:39;10.70;71.00
63017;DHT22;50274;45.640;11.756;2024-03-23T04:53:06;10.70;71.00
63017;DHT22;50274;45.640;11.756;2024-03-23T04:55:31;10.70;70.90
63017;DHT22;50274;45.640;11.756;2024-03-23T04:57:57;10.70;70.80
63017;DHT22;50274;45.640;11.756;2024-03-23T05:00:23;10.70;70.80
63017;DHT22;50274;45.640;11.756;2024-03-23T05:02:49;10.70;70.80
63017;DHT22;50274;45.640;11.756;2024-03-23T05:05:14;10.60;70.90
63017;DHT22;50274;45.640;11.756;2024-03-23T05:07:40;10.60;71.10
63017;DHT22;50274;45.640;11.756;2024-03-23T05:10:09;10.50;71.10
63017;DHT22;50274;45.640;11.756;2024-03-23T05:12:37;10.50;71.20
63017;DHT22;50274;45.640;11.756;2024-03-23T05:15:06;10.50;71.20
63017;DHT22;50274;45.640;11.756;2024-03-23T05:17:35;10.50;71.20
63017;DHT22;50274;45.640;11.756;2024-03-23T05:20:01;10.50;71.30
63017;DHT22;50274;45.640;11.756;2024-03-23T05:22:28;10.50;71.30
63017;DHT22;50274;45.640;11.756;2024-03-23T05:24:54;10.50;71.20
63017;DHT22;50274;45.640;11.756;2024-03-23T05:27:22;10.50;71.20
63017;DHT22;50274;45.640;11.756;2024-03-23T05:29:48;10.50;71.30
63017;DHT22;50274;45.640;11.756;2024-03-23T05:32:14;10.50;71.30
63017;DHT22;50274;45.640;11.756;2024-03-23T05:34:40;10.40;71.30
63017;DHT22;50274;45.640;11.756;2024-03-23T05:37:06;10.50;71.40
63017;DHT22;50274;45.640;11.756;2024-03-23T05:39:31;10.50;71.30
63017;DHT22;50274;45.640;11.756;2024-03-23T05:41:57;10.40;71.30
63017;DHT22;50274;45.640;11.756;2024-03-23T05:44:23;10.50;71.30
63017;DHT22;50274;45.640;11.756;2024-03-23T05:46:49;10.50;71.30
63017;DHT22;50274;45.640;11.756;2024-03-23T05:49:16;10.40;71.30
63017;DHT22;50274;45.640;11.756;2024-03-23T05:51:43;10.50;71.40
63017;DHT22;50274;45.640;11.756;2024-03-23T05:54:09;10.50;71.40
63017;DHT22;50274;45.640;11.756;2024-03-23T05:56:35;10.50;71.50
63017;DHT22;50274;45.640;11.756;2024-03-23T05:59:01;10.50;71.50
63017;DHT22;50274;45.640;11.756;2024-03-23T06:01:28;10.60;71.50
63017;DHT22;50274;45.640;11.756;2024-03-23T06:03:58;10.60;71.50
63017;DHT22;50274;45.640;11.756;2024-03-23T06:06:23;10.60;71.60
63017;DHT22;50274;45.640;11.756;2024-03-23T06:08:49;10.60;71.60
63017;DHT22;50274;45.640;11.756;2024-03-23T06:11:15;10.70;71.50
63017;DHT22;50274;45.640;11.756;2024-03-23T06:13:41;10.70;71.70
63017;DHT22;50274;45.640;11.756;2024-03-23T06:16:06;10.80;71.60
63017;DHT22;50274;45.640;11.756;2024-03-23T06:18:32;10.80;71.70
63017;DHT22;50274;45.640;11.756;2024-03-23T06:20:58;10.90;71.80
63017;DHT22;50274;45.640;11.756;2024-03-23T06:23:24;11.00;71.80
63017;DHT22;50274;45.640;11.756;2024-03-23T06:25:50;11.10;71.90
63017;DHT22;50274;45.640;11.756;2024-03-23T06:28:15;11.20;71.60
63017;DHT22;50274;45.640;11.756;2024-03-23T06:30:41;11.30;71.50
63017;DHT22;50274;45.640;11.756;2024-03-23T06:33:07;11.40;71.60
63017;DHT22;50274;45.640;11.756;2024-03-23T06:35:33;11.60;71.40
63017;DHT22;50274;45.640;11.756;2024-03-23T06:37:58;11.70;71.30
63017;DHT22;50274;45.640;11.756;2024-03-23T06:40:24;11.70;71.30
63017;DHT22;50274;45.640;11.756;2024-03-23T06:42:50;11.80;71.30
63017;DHT22;50274;45.640;11.756;2024-03-23T06:45:17;11.90;71.20
63017;DHT22;50274;45.640;11.756;2024-03-23T06:47:44;11.90;71.20
63017;DHT22;50274;45.640;11.756;2024-03-23T06:50:10;11.90;71.20
63017;DHT22;50274;45.640;11.756;2024-03-23T06:52:36;11.90;71.30
63017;DHT22;50274;45.640;11.756;2024-03-23T06:55:02;11.90;71.40
63017;DHT22;50274;45.640;11.756;2024-03-23T06:57:30;12.00;71.30
63017;DHT22;50274;45.640;11.756;2024-03-23T06:59:55;12.00;71.50
63017;DHT22;50274;45.640;11.756;2024-03-23T07:02:21;12.00;71.60
63017;DHT22;50274;45.640;11.756;2024-03-23T07:04:47;12.10;71.50
63017;DHT22;50274;45.640;11.756;2024-03-23T07:07:13;12.10;71.40
63017;DHT22;50274;45.640;11.756;2024-03-23T07:09:39;12.20;71.40
63017;DHT22;50274;45.640;11.756;2024-03-23T07:12:05;12.30;71.60
63017;DHT22;50274;45.640;11.756;2024-03-23T07:14:31;12.50;71.50
63017;DHT22;50274;45.640;11.756;2024-03-23T07:16:57;12.50;71.30
63017;DHT22;50274;45.640;11.756;2024-03-23T07:19:22;12.60;71.20
63017;DHT22;50274;45.640;11.756;2024-03-23T07:21:50;12.80;71.20
63017;DHT22;50274;45.640;11.756;2024-03-23T07:24:15;12.90;71.50
63017;DHT22;50274;45.640;11.756;2024-03-23T07:26:41;13.00;71.60
63017;DHT22;50274;45.640;11.756;2024-03-23T07:29:08;13.00;71.60
63017;DHT22;50274;45.640;11.756;2024-03-23T07:31:35;13.10;71.90
63017;DHT22;50274;45.640;11.756;2024-03-23T07:34:00;13.30;72.20
63017;DHT22;50274;45.640;11.756;2024-03-23T07:36:26;13.40;72.70
63017;DHT22;50274;45.640;11.756;2024-03-23T07:38:52;13.50;72.40
63017;DHT22;50274;45.640;11.756;2024-03-23T07:41:19;13.60;72.50
63017;DHT22;50274;45.640;11.756;2024-03-23T07:43:46;13.80;72.70
63017;DHT22;50274;45.640;11.756;2024-03-23T07:46:14;13.90;72.40
63017;DHT22;50274;45.640;11.756;2024-03-23T07:48:40;14.00;72.30
63017;DHT22;50274;45.640;11.756;2024-03-23T07:51:11;14.00;72.00
63017;DHT22;50274;45.640;11.756;2024-03-23T07:53:37;14.10;71.80
63017;DHT22;50274;45.640;11.756;2024-03-23T07:56:06;14.20;71.20
63017;DHT22;50274;45.640;11.756;2024-03-23T07:58:32;14.30;71.00
63017;DHT22;50274;45.640;11.756;2024-03-23T08:01:05;14.30;70.90
63017;DHT22;50274;45.640;11.756;2024-03-23T08:03:38;14.40;70.90
63017;DHT22;50274;45.640;11.756;2024-03-23T08:08:41;14.60;71.50
63017;DHT22;50274;45.640;11.756;2024-03-23T08:11:08;14.70;71.20
63017;DHT22;50274;45.640;11.756;2024-03-23T08:13:34;14.80;71.10
63017;DHT22;50274;45.640;11.756;2024-03-23T08:16:01;14.90;70.90
63017;DHT22;50274;45.640;11.756;2024-03-23T08:18:28;15.00;70.80
63017;DHT22;50274;45.640;11.756;2024-03-23T08:21:00;15.10;70.30
63017;DHT22;50274;45.640;11.756;2024-03-23T08:23:31;15.10;70.10
63017;DHT22;50274;45.640;11.756;2024-03-23T08:26:12;15.20;70.10
63017;DHT22;50274;45.640;11.756;2024-03-23T08:28:38;15.30;70.00
63017;DHT22;50274;45.640;11.756;2024-03-23T08:31:06;15.40;69.90
63017;DHT22;50274;45.640;11.756;2024-03-23T08:33:32;15.50;69.90
63017;DHT22;50274;45.640;11.756;2024-03-23T08:36:00;15.50;70.00
63017;DHT22;50274;45.640;11.756;2024-03-23T08:38:27;15.60;70.40
63017;DHT22;50274;45.640;11.756;2024-03-23T08:41:11;15.80;70.10
63017;DHT22;50274;45.640;11.756;2024-03-23T08:43:41;15.90;69.70
63017;DHT22;50274;45.640;11.756;2024-03-23T08:46:09;16.00;69.30
63017;DHT22;50274;45.640;11.756;2024-03-23T08:48:36;16.00;69.40
63017;DHT22;50274;45.640;11.756;2024-03-23T08:51:03;16.10;69.40
63017;DHT22;50274;45.640;11.756;2024-03-23T08:53:30;16.20;69.20
63017;DHT22;50274;45.640;11.756;2024-03-23T08:56:00;16.20;69.30
63017;DHT22;50274;45.640;11.756;2024-03-23T08:58:27;16.30;69.10
63017;DHT22;50274;45.640;11.756;2024-03-23T09:00:54;16.30;69.10
63017;DHT22;50274;45.640;11.756;2024-03-23T09:03:26;16.40;69.20
63017;DHT22;50274;45.640;11.756;2024-03-23T09:05:52;16.50;69.40
63017;DHT22;50274;45.640;11.756;2024-03-23T09:08:20;16.60;69.30
63017;DHT22;50274;45.640;11.756;2024-03-23T09:10:47;16.70;68.90
63017;DHT22;50274;45.640;11.756;2024-03-23T09:13:13;16.70;68.80
63017;DHT22;50274;45.640;11.756;2024-03-23T09:15:49;16.80;68.70
63017;DHT22;50274;45.640;11.756;2024-03-23T09:18:15;16.90;68.50
63017;DHT22;50274;45.640;11.756;2024-03-23T09:20:41;17.00;68.10
63017;DHT22;50274;45.640;11.756;2024-03-23T09:23:07;17.10;67.60
63017;DHT22;50274;45.640;11.756;2024-03-23T09:25:38;17.20;66.90
63017;DHT22;50274;45.640;11.756;2024-03-23T09:28:05;17.30;66.10
63017;DHT22;50274;45.640;11.756;2024-03-23T09:30:32;17.30;65.80
63017;DHT22;50274;45.640;11.756;2024-03-23T09:33:03;17.40;65.80
63017;DHT22;50274;45.640;11.756;2024-03-23T09:35:29;17.50;65.70
63017;DHT22;50274;45.640;11.756;2024-03-23T09:37:55;17.50;65.90
63017;DHT22;50274;45.640;11.756;2024-03-23T09:40:21;17.60;66.00
63017;DHT22;50274;45.640;11.756;2024-03-23T09:42:50;17.70;65.70
63017;DHT22;50274;45.640;11.756;2024-03-23T09:45:39;17.90;65.60
63017;DHT22;50274;45.640;11.756;2024-03-23T09:48:09;18.00;65.40
63017;DHT22;50274;45.640;11.756;2024-03-23T09:50:42;18.20;64.80
63017;DHT22;50274;45.640;11.756;2024-03-23T09:53:13;18.30;63.60
63017;DHT22;50274;45.640;11.756;2024-03-23T09:55:43;18.40;63.60
63017;DHT22;50274;45.640;11.756;2024-03-23T09:58:14;18.60;63.30
63017;DHT22;50274;45.640;11.756;2024-03-23T10:00:40;18.60;62.90
63017;DHT22;50274;45.640;11.756;2024-03-23T10:03:11;18.70;62.20
63017;DHT22;50274;45.640;11.756;2024-03-23T10:06:05;18.70;60.40
63017;DHT22;50274;45.640;11.756;2024-03-23T10:08:31;18.80;60.50
63017;DHT22;50274;45.640;11.756;2024-03-23T10:11:14;18.90;60.90
63017;DHT22;50274;45.640;11.756;2024-03-23T10:13:44;18.90;60.80
63017;DHT22;50274;45.640;11.756;2024-03-23T10:16:12;19.00;60.20
63017;DHT22;50274;45.640;11.756;2024-03-23T10:18:39;19.10;60.30
63017;DHT22;50274;45.640;11.756;2024-03-23T10:23:31;19.30;60.60
63017;DHT22;50274;45.640;11.756;2024-03-23T10:26:18;19.30;60.00
63017;DHT22;50274;45.640;11.756;2024-03-23T10:29:01;19.50;59.10
63017;DHT22;50274;45.640;11.756;2024-03-23T10:31:30;19.60;58.40
63017;DHT22;50274;45.640;11.756;2024-03-23T10:33:56;19.70;57.90
63017;DHT22;50274;45.640;11.756;2024-03-23T10:36:23;19.70;57.60
63017;DHT22;50274;45.640;11.756;2024-03-23T10:38:50;19.90;57.70
63017;DHT22;50274;45.640;11.756;2024-03-23T10:41:17;20.00;56.00
63017;DHT22;50274;45.640;11.756;2024-03-23T10:43:47;20.00;56.30
63017;DHT22;50274;45.640;11.756;2024-03-23T10:46:14;20.10;56.00
63017;DHT22;50274;45.640;11.756;2024-03-23T10:48:40;20.20;56.10
63017;DHT22;50274;45.640;11.756;2024-03-23T10:51:08;20.20;56.00
63017;DHT22;50274;45.640;11.756;2024-03-23T10:53:34;20.30;55.10
63017;DHT22;50274;45.640;11.756;2024-03-23T10:56:00;20.50;55.20
63017;DHT22;50274;45.640;11.756;2024-03-23T10:58:39;20.50;55.00
63017;DHT22;50274;45.640;11.756;2024-03-23T11:01:06;20.70;55.30
63017;DHT22;50274;45.640;11.756;2024-03-23T11:03:33;20.80;55.50
63017;DHT22;50274;45.640;11.756;2024-03-23T11:06:00;20.90;54.60
63017;DHT22;50274;45.640;11.756;2024-03-23T11:08:37;21.00;54.40
63017;DHT22;50274;45.640;11.756;2024-03-23T11:11:19;21.00;53.70
63017;DHT22;50274;45.640;11.756;2024-03-23T11:13:54;21.00;53.50
63017;DHT22;50274;45.640;11.756;2024-03-23T11:16:28;21.00;53.00
63017;DHT22;50274;45.640;11.756;2024-03-23T11:19:34;21.10;52.50
63017;DHT22;50274;45.640;11.756;2024-03-23T11:22:00;21.10;52.30
63017;DHT22;50274;45.640;11.756;2024-03-23T11:24:27;21.20;52.40
63017;DHT22;50274;45.640;11.756;2024-03-23T11:26:53;21.20;52.30
63017;DHT22;50274;45.640;11.756;2024-03-23T11:29:19;21.40;52.30
63017;DHT22;50274;45.640;11.756;2024-03-23T11:31:49;21.50;51.20
63017;DHT22;50274;45.640;11.756;2024-03-23T11:34:16;21.60;51.60
63017;DHT22;50274;45.640;11.756;2024-03-23T11:36:43;21.80;51.10
63017;DHT22;50274;45.640;11.756;2024-03-23T11:39:15;22.00;51.10
63017;DHT22;50274;45.640;11.756;2024-03-23T11:41:52;22.00;50.80
63017;DHT22;50274;45.640;11.756;2024-03-23T11:44:20;22.20;50.10
63017;DHT22;50274;45.640;11.756;2024-03-23T11:46:46;22.10;49.90
63017;DHT22;50274;45.640;11.756;2024-03-23T11:49:26;22.10;50.10
63017;DHT22;50274;45.640;11.756;2024-03-23T11:51:53;22.30;50.40
63017;DHT22;50274;45.640;11.756;2024-03-23T11:54:26;22.50;49.90
63017;DHT22;50274;45.640;11.756;2024-03-23T11:57:03;22.50;49.00
63017;DHT22;50274;45.640;11.756;2024-03-23T11:59:40;22.60;48.40
63017;DHT22;50274;45.640;11.756;2024-03-23T12:02:10;22.50;47.30
63017;DHT22;50274;45.640;11.756;2024-03-23T12:04:40;22.60;47.30
63017;DHT22;50274;45.640;11.756;2024-03-23T12:07:18;22.70;48.00
63017;DHT22;50274;45.640;11.756;2024-03-23T12:10:05;22.90;48.20
63017;DHT22;50274;45.640;11.756;2024-03-23T12:12:34;23.00;47.60
63017;DHT22;50274;45.640;11.756;2024-03-23T12:15:07;23.10;47.90
63017;DHT22;50274;45.640;11.756;2024-03-23T12:17:34;23.20;47.20
63017;DHT22;50274;45.640;11.756;2024-03-23T12:20:01;23.20;47.00
63017;DHT22;50274;45.640;11.756;2024-03-23T12:22:28;23.30;46.50
63017;DHT22;50274;45.640;11.756;2024-03-23T12:24:55;23.30;46.60
63017;DHT22;50274;45.640;11.756;2024-03-23T12:27:21;23.40;46.40
63017;DHT22;50274;45.640;11.756;2024-03-23T12:29:46;23.40;46.50
63017;DHT22;50274;45.640;11.756;2024-03-23T12:32:13;23.40;46.80
63017;DHT22;50274;45.640;11.756;2024-03-23T12:34:40;23.50;46.80
63017;DHT22;50274;45.640;11.756;2024-03-23T12:37:06;23.50;46.10
63017;DHT22;50274;45.640;11.756;2024-03-23T12:39:32;23.70;45.80
63017;DHT22;50274;45.640;11.756;2024-03-23T12:42:01;23.80;45.30
63017;DHT22;50274;45.640;11.756;2024-03-23T12:44:28;23.90;44.80
63017;DHT22;50274;45.640;11.756;2024-03-23T12:46:54;23.60;44.00
63017;DHT22;50274;45.640;11.756;2024-03-23T12:49:20;23.40;44.60
63017;DHT22;50274;45.640;11.756;2024-03-23T12:51:56;23.50;44.50
63017;DHT22;50274;45.640;11.756;2024-03-23T12:54:22;23.50;45.00
63017;DHT22;50274;45.640;11.756;2024-03-23T12:56:50;23.60;45.40
63017;DHT22;50274;45.640;11.756;2024-03-23T12:59:16;23.80;45.40
63017;DHT22;50274;45.640;11.756;2024-03-23T13:01:44;23.80;43.70
63017;DHT22;50274;45.640;11.756;2024-03-23T13:04:10;23.80;43.70
63017;DHT22;50274;45.640;11.756;2024-03-23T13:06:36;24.00;44.00
63017;DHT22;50274;45.640;11.756;2024-03-23T13:09:02;24.00;43.00
63017;DHT22;50274;45.640;11.756;2024-03-23T13:11:29;23.80;43.10
63017;DHT22;50274;45.640;11.756;2024-03-23T13:13:55;23.80;43.60
63017;DHT22;50274;45.640;11.756;2024-03-23T13:16:21;23.90;43.80
63017;DHT22;50274;45.640;11.756;2024-03-23T13:18:47;24.00;43.20
63017;DHT22;50274;45.640;11.756;2024-03-23T13:21:12;24.00;42.60
63017;DHT22;50274;45.640;11.756;2024-03-23T13:23:38;24.00;42.30
63017;DHT22;50274;45.640;11.756;2024-03-23T13:26:08;24.00;42.70
63017;DHT22;50274;45.640;11.756;2024-03-23T13:28:33;24.10;42.70
63017;DHT22;50274;45.640;11.756;2024-03-23T13:31:01;24.10;41.70
63017;DHT22;50274;45.640;11.756;2024-03-23T13:33:32;23.80;42.80
63017;DHT22;50274;45.640;11.756;2024-03-23T13:35:58;23.40;43.50
63017;DHT22;50274;45.640;11.756;2024-03-23T13:38:24;22.90;44.10
63017;DHT22;50274;45.640;11.756;2024-03-23T13:40:58;22.50;44.50
63017;DHT22;50274;45.640;11.756;2024-03-23T13:43:25;22.10;44.90
63017;DHT22;50274;45.640;11.756;2024-03-23T13:45:56;21.80;45.80
63017;DHT22;50274;45.640;11.756;2024-03-23T13:48:24;21.70;46.60
63017;DHT22;50274;45.640;11.756;2024-03-23T13:51:00;21.60;46.60
63017;DHT22;50274;45.640;11.756;2024-03-23T13:53:26;21.60;47.30
63017;DHT22;50274;45.640;11.756;2024-03-23T13:55:52;21.50;47.80
63017;DHT22;50274;45.640;11.756;2024-03-23T13:58:19;21.30;47.60
63017;DHT22;50274;45.640;11.756;2024-03-23T14:00:45;21.20;47.30
63017;DHT22;50274;45.640;11.756;2024-03-23T14:03:12;21.00;47.80
63017;DHT22;50274;45.640;11.756;2024-03-23T14:05:38;20.90;47.70
63017;DHT22;50274;45.640;11.756;2024-03-23T14:08:08;20.80;48.00
63017;DHT22;50274;45.640;11.756;2024-03-23T14:10:35;20.80;48.10
63017;DHT22;50274;45.640;11.756;2024-03-23T14:13:04;20.70;48.80
63017;DHT22;50274;45.640;11.756;2024-03-23T14:15:30;20.70;49.00
63017;DHT22;50274;45.640;11.756;2024-03-23T14:17:56;20.70;49.20
63017;DHT22;50274;45.640;11.756;2024-03-23T14:20:23;20.60;48.70
63017;DHT22;50274;45.640;11.756;2024-03-23T14:22:52;20.60;48.50
63017;DHT22;50274;45.640;11.756;2024-03-23T14:25:20;20.60;48.30
63017;DHT22;50274;45.640;11.756;2024-03-23T14:27:47;20.50;48.40
63017;DHT22;50274;45.640;11.756;2024-03-23T14:30:13;20.50;48.60
63017;DHT22;50274;45.640;11.756;2024-03-23T14:32:39;20.70;48.40
63017;DHT22;50274;45.640;11.756;2024-03-23T14:35:06;21.10;48.20
63017;DHT22;50274;45.640;11.756;2024-03-23T14:37:39;21.50;47.80
63017;DHT22;50274;45.640;11.756;2024-03-23T14:40:07;21.80;46.90
63017;DHT22;50274;45.640;11.756;2024-03-23T14:42:33;22.00;45.20
63017;DHT22;50274;45.640;11.756;2024-03-23T14:45:02;22.00;45.10
63017;DHT22;50274;45.640;11.756;2024-03-23T14:47:28;22.10;45.10
63017;DHT22;50274;45.640;11.756;2024-03-23T14:49:54;22.10;44.80
63017;DHT22;50274;45.640;11.756;2024-03-23T14:52:20;22.10;44.90
63017;DHT22;50274;45.640;11.756;2024-03-23T14:54:46;22.00;44.40
63017;DHT22;50274;45.640;11.756;2024-03-23T14:57:12;21.90;45.10
63017;DHT22;50274;45.640;11.756;2024-03-23T14:59:38;21.70;45.30
63017;DHT22;50274;45.640;11.756;2024-03-23T15:02:13;21.50;45.40
63017;DHT22;50274;45.640;11.756;2024-03-23T15:04:39;21.30;45.80
63017;DHT22;50274;45.640;11.756;2024-03-23T15:07:07;21.10;46.30
63017;DHT22;50274;45.640;11.756;2024-03-23T15:09:33;21.00;46.90
63017;DHT22;50274;45.640;11.756;2024-03-23T15:11:59;20.90;47.50
63017;DHT22;50274;45.640;11.756;2024-03-23T15:14:27;20.70;47.60
63017;DHT22;50274;45.640;11.756;2024-03-23T15:16:53;20.60;47.60
63017;DHT22;50274;45.640;11.756;2024-03-23T15:19:19;20.50;47.80
63017;DHT22;50274;45.640;11.756;2024-03-23T15:21:45;20.30;48.10
63017;DHT22;50274;45.640;11.756;2024-03-23T15:24:11;20.20;48.20
63017;DHT22;50274;45.640;11.756;2024-03-23T15:26:37;20.20;48.60
63017;DHT22;50274;45.640;11.756;2024-03-23T15:29:03;20.10;48.80
63017;DHT22;50274;45.640;11.756;2024-03-23T15:31:36;20.10;49.30
63017;DHT22;50274;45.640;11.756;2024-03-23T15:34:02;20.00;49.30
63017;DHT22;50274;45.640;11.756;2024-03-23T15:36:29;19.90;49.50
63017;DHT22;50274;45.640;11.756;2024-03-23T15:38:54;19.80;49.70
63017;DHT22;50274;45.640;11.756;2024-03-23T15:41:20;19.80;50.10
63017;DHT22;50274;45.640;11.756;2024-03-23T15:43:48;19.70;49.90
63017;DHT22;50274;45.640;11.756;2024-03-23T15:46:14;19.60;50.20
63017;DHT22;50274;45.640;11.756;2024-03-23T15:48:41;19.60;50.30
63017;DHT22;50274;45.640;11.756;2024-03-23T15:51:12;19.60;50.50
63017;DHT22;50274;45.640;11.756;2024-03-23T15:53:38;19.50;50.90
63017;DHT22;50274;45.640;11.756;2024-03-23T15:56:04;19.60;51.50
63017;DHT22;50274;45.640;11.756;2024-03-23T15:58:33;19.50;51.60
63017;DHT22;50274;45.640;11.756;2024-03-23T16:01:07;19.50;51.80
63017;DHT22;50274;45.640;11.756;2024-03-23T16:03:36;19.60;52.20
63017;DHT22;50274;45.640;11.756;2024-03-23T16:06:03;19.60;52.10
63017;DHT22;50274;45.640;11.756;2024-03-23T16:08:32;19.70;51.70
63017;DHT22;50274;45.640;11.756;2024-03-23T16:11:02;19.70;51.70
63017;DHT22;50274;45.640;11.756;2024-03-23T16:13:29;19.80;51.90
63017;DHT22;50274;45.640;11.756;2024-03-23T16:15:59;19.70;51.40